Time;durP1;ratioP1;P1;durP2;ratioP2;P2;SDS_P1;SDS_P2;PMS_P1;PMS_P2;Temp;Humidity;BMP_temperature;BMP_pressure;BME280_temperature;BME280_humidity;BME280_pressure;Samples;Min_cycle;Max_cycle;Signal;HPM_P1;HPM_P2
2022/04/26 03:37:37;;;;;;;9.03;7.13;;;;;;;;;;5078260;28;20226;-73
2022/04/26 03:40:05;;;;;;;8.03;6.33;;;;;;;;;;5075715;28;20230;-73
2022/04/26 03:42:34;;;;;;;6.53;5.77;;;;;;;;;;5075511;28;20382;-74
2022/04/26 03:45:02;;;;;;;9.67;6.80;;;;;;;;;;5076120;28;20229;-74
2022/04/26 03:47:30;;;;;;;10.03;7.30;;;;;;;;;;5075804;28;20640;-74
2022/04/26 03:50:00;;;;;;;7.90;6.83;;;;;;;;;;5076341;28;20281;-75
2022/04/26 03:52:28;;;;;;;8.90;7.57;;;;;;;;;;5069104;28;20198;-73
2022/04/26 03:54:56;;;;;;;9.47;7.73;;;;;;;;;;5072301;28;20234;-73
2022/04/26 03:57:24;;;;;;;9.60;7.40;;;;;;;;;;5070275;28;20249;-72
2022/04/26 03:59:52;;;;;;;10.10;7.83;;;;;;;;;;5075600;28;20217;-72
2022/04/26 04:02:20;;;;;;;13.87;7.97;;;;;;;;;;5078620;28;20659;-72
2022/04/26 04:04:49;;;;;;;9.37;7.37;;;;;;;;;;5069188;28;20206;-72
2022/04/26 04:07:18;;;;;;;10.77;8.30;;;;;;;;;;5068140;28;20254;-72
2022/04/26 04:09:47;;;;;;;8.20;7.33;;;;;;;;;;5076093;28;20300;-72
2022/04/26 04:12:15;;;;;;;11.23;8.17;;;;;;;;;;5074842;28;20335;-71
2022/04/26 04:14:43;;;;;;;12.57;8.90;;;;;;;;;;5078967;28;20226;-71
2022/04/26 04:17:11;;;;;;;10.90;8.97;;;;;;;;;;5074985;28;20214;-71
2022/04/26 04:19:39;;;;;;;10.23;8.70;;;;;;;;;;5075956;28;20233;-71
2022/04/26 04:22:07;;;;;;;13.10;9.30;;;;;;;;;;5072338;28;20627;-71
2022/04/26 04:24:37;;;;;;;12.77;8.87;;;;;;;;;;5070739;28;20248;-71
2022/04/26 04:27:05;;;;;;;12.20;9.43;;;;;;;;;;5078822;28;20233;-72
2022/04/26 04:29:33;;;;;;;11.83;9.30;;;;;;;;;;5068234;28;20207;-71
2022/04/26 04:32:02;;;;;;;10.90;8.80;;;;;;;;;;5078264;28;20206;-71
2022/04/26 04:34:30;;;;;;;11.77;8.47;;;;;;;;;;5075606;28;20264;-71
2022/04/26 04:36:58;;;;;;;12.03;7.37;;;;;;;;;;5077410;28;20245;-72
2022/04/26 04:39:27;;;;;;;6.97;6.20;;;;;;;;;;5070628;28;20290;-72
2022/04/26 04:41:56;;;;;;;8.47;5.97;;;;;;;;;;5072313;28;20233;-72
2022/04/26 04:44:24;;;;;;;5.67;5.03;;;;;;;;;;5074709;28;20234;-72
2022/04/26 04:46:54;;;;;;;6.10;5.50;;;;;;;;;;5074887;28;20230;-72
2022/04/26 04:49:23;;;;;;;7.63;5.90;;;;;;;;;;5076287;28;20238;-72
2022/04/26 04:51:51;;;;;;;7.27;6.03;;;;;;;;;;5075677;28;20281;-72
2022/04/26 04:54:19;;;;;;;6.43;4.97;;;;;;;;;;5076982;28;20202;-73
2022/04/26 04:56:47;;;;;;;8.73;6.67;;;;;;;;;;5076785;28;20214;-72
2022/04/26 04:59:22;;;;;;;7.20;5.83;;;;;;;;;;5077129;28;20711;-72
2022/04/26 05:01:51;;;;;;;9.07;5.80;;;;;;;;;;5071809;28;20277;-71
2022/04/26 05:04:19;;;;;;;10.37;6.37;;;;;;;;;;5070356;28;20211;-72
2022/04/26 05:06:47;;;;;;;8.17;6.13;;;;;;;;;;5074246;28;20249;-71
2022/04/26 05:09:15;;;;;;;7.97;6.37;;;;;;;;;;5077122;28;20632;-72
2022/04/26 05:11:43;;;;;;;7.07;5.90;;;;;;;;;;5075619;28;20226;-71
2022/04/26 05:14:11;;;;;;;6.10;5.50;;;;;;;;;;5073195;28;20230;-72
2022/04/26 05:16:40;;;;;;;6.73;5.60;;;;;;;;;;5068481;28;20587;-69
2022/04/26 05:19:09;;;;;;;7.37;5.77;;;;;;;;;;5068394;28;20230;-70
2022/04/26 05:21:37;;;;;;;8.03;6.20;;;;;;;;;;5068114;28;20285;-69
2022/04/26 05:26:50;;;;;;;6.27;5.47;;;;;;;;;;5068947;28;20257;-70
2022/04/26 05:29:18;;;;;;;7.80;5.83;;;;;;;;;;5071182;28;20277;-70
2022/04/26 05:31:48;;;;;;;6.13;5.53;;;;;;;;;;5071309;28;20652;-70
2022/04/26 05:34:16;;;;;;;7.87;5.83;;;;;;;;;;5070698;28;20206;-69
2022/04/26 05:36:44;;;;;;;7.20;6.00;;;;;;;;;;5071130;28;20214;-69
2022/04/26 05:39:13;;;;;;;6.50;5.80;;;;;;;;;;5070851;28;20848;-70
2022/04/26 05:41:44;;;;;;;6.83;5.83;;;;;;;;;;5068800;28;20202;-70
2022/04/26 05:44:12;;;;;;;7.03;5.60;;;;;;;;;;5073099;28;20238;-70
2022/04/26 05:46:40;;;;;;;8.43;6.03;;;;;;;;;;5071912;28;20257;-69
2022/04/26 05:49:10;;;;;;;10.77;6.37;;;;;;;;;;5069301;28;20198;-69
2022/04/26 05:51:38;;;;;;;6.73;6.03;;;;;;;;;;5070038;28;20226;-69
2022/04/26 05:54:06;;;;;;;6.97;6.33;;;;;;;;;;5068204;28;20198;-69
2022/04/26 05:56:34;;;;;;;12.17;7.80;;;;;;;;;;5067995;28;20565;-70
2022/04/26 05:59:02;;;;;;;9.83;5.50;;;;;;;;;;5076686;28;20229;-70
2022/04/26 06:01:30;;;;;;;7.73;5.50;;;;;;;;;;5073340;28;20209;-69
2022/04/26 06:03:58;;;;;;;8.43;5.93;;;;;;;;;;5068661;28;20205;-69
2022/04/26 06:06:28;;;;;;;5.63;5.00;;;;;;;;;;5073854;28;20219;-70
2022/04/26 06:08:56;;;;;;;10.23;5.67;;;;;;;;;;5072840;28;20222;-69
2022/04/26 06:11:24;;;;;;;9.37;5.60;;;;;;;;;;5067208;28;20230;-67
2022/04/26 06:13:52;;;;;;;7.67;5.90;;;;;;;;;;5066575;28;20234;-68
2022/04/26 06:16:20;;;;;;;18.57;8.13;;;;;;;;;;5070341;28;20261;-68
2022/04/26 06:18:48;;;;;;;8.87;6.47;;;;;;;;;;5067944;28;20201;-68
2022/04/26 06:21:16;;;;;;;17.20;6.60;;;;;;;;;;5065371;28;20696;-68
2022/04/26 06:23:45;;;;;;;29.37;9.80;;;;;;;;;;5069905;28;20226;-68
2022/04/26 06:26:13;;;;;;;19.60;7.53;;;;;;;;;;5069286;28;20226;-69
2022/04/26 06:28:42;;;;;;;10.63;6.10;;;;;;;;;;5066234;28;20214;-69
2022/04/26 06:31:10;;;;;;;8.10;5.73;;;;;;;;;;5067040;28;20277;-68
2022/04/26 06:33:38;;;;;;;6.87;5.70;;;;;;;;;;5067276;28;20289;-70
2022/04/26 06:36:06;;;;;;;8.07;5.93;;;;;;;;;;5069561;28;20225;-68
2022/04/26 06:38:34;;;;;;;9.17;5.60;;;;;;;;;;5071481;28;20207;-68
2022/04/26 06:41:04;;;;;;;7.33;5.57;;;;;;;;;;5066187;28;20655;-68
2022/04/26 06:43:33;;;;;;;5.80;5.20;;;;;;;;;;5062255;28;20207;-68
2022/04/26 06:46:01;;;;;;;7.80;6.00;;;;;;;;;;5069015;28;20221;-68
2022/04/26 06:48:30;;;;;;;6.70;5.70;;;;;;;;;;5068183;28;20764;-69
2022/04/26 06:50:58;;;;;;;11.37;6.27;;;;;;;;;;5069290;28;20245;-68
2022/04/26 06:53:26;;;;;;;7.77;5.90;;;;;;;;;;5069031;28;20205;-69
2022/04/26 06:55:54;;;;;;;7.37;6.63;;;;;;;;;;5069292;28;20218;-69
2022/04/26 06:58:23;;;;;;;11.07;8.30;;;;;;;;;;5068689;28;20681;-69
2022/04/26 07:00:51;;;;;;;10.80;8.07;;;;;;;;;;5069770;28;20237;-69
2022/04/26 07:03:23;;;;;;;12.33;9.03;;;;;;;;;;5072867;28;20269;-69
2022/04/26 07:05:52;;;;;;;12.23;9.13;;;;;;;;;;5071605;28;20289;-68
2022/04/26 07:08:20;;;;;;;11.80;9.17;;;;;;;;;;5072080;28;20226;-69
2022/04/26 07:10:48;;;;;;;12.10;8.27;;;;;;;;;;5071719;28;20571;-69
2022/04/26 07:13:18;;;;;;;13.37;8.47;;;;;;;;;;5070953;28;20210;-68
2022/04/26 07:15:48;;;;;;;11.90;9.90;;;;;;;;;;5073210;28;20268;-69
2022/04/26 07:18:16;;;;;;;15.17;10.33;;;;;;;;;;5071439;28;20207;-69
2022/04/26 07:20:45;;;;;;;11.43;8.77;;;;;;;;;;5069811;28;20194;-69
2022/04/26 07:23:13;;;;;;;11.90;8.83;;;;;;;;;;5075055;28;20233;-69
2022/04/26 07:25:42;;;;;;;13.73;10.13;;;;;;;;;;5073921;28;20229;-69
2022/04/26 07:28:10;;;;;;;13.50;10.23;;;;;;;;;;5071849;28;20693;-69
2022/04/26 07:30:39;;;;;;;12.33;9.80;;;;;;;;;;5074982;28;20202;-69
2022/04/26 07:35:55;;;;;;;17.00;9.87;;;;;;;;;;5071508;28;20222;-68
2022/04/26 07:38:23;;;;;;;10.77;8.27;;;;;;;;;;5067570;28;20217;-68
2022/04/26 07:40:51;;;;;;;12.00;9.20;;;;;;;;;;5067926;28;20198;-68
2022/04/26 07:43:19;;;;;;;13.93;9.30;;;;;;;;;;5075616;28;20210;-68
2022/04/26 07:45:47;;;;;;;10.73;8.50;;;;;;;;;;5068489;28;20222;-68
2022/04/26 07:48:17;;;;;;;12.40;9.47;;;;;;;;;;5075486;28;20254;-68
2022/04/26 07:50:47;;;;;;;16.10;10.03;;;;;;;;;;5076430;28;20206;-69
2022/04/26 07:53:15;;;;;;;15.57;10.33;;;;;;;;;;5075460;28;20201;-68
2022/04/26 07:55:43;;;;;;;14.97;10.07;;;;;;;;;;5074195;28;20257;-69
2022/04/26 07:58:11;;;;;;;11.90;9.33;;;;;;;;;;5073161;28;20230;-68
2022/04/26 08:00:39;;;;;;;13.40;9.73;;;;;;;;;;5071399;28;20199;-68
2022/04/26 08:03:07;;;;;;;12.70;9.83;;;;;;;;;;5072554;28;20321;-69
2022/04/26 08:05:37;;;;;;;11.37;9.00;;;;;;;;;;5072023;28;20225;-68
2022/04/26 08:08:05;;;;;;;11.63;8.40;;;;;;;;;;5073854;28;20286;-68
2022/04/26 08:10:35;;;;;;;8.37;6.53;;;;;;;;;;5075990;28;20206;-68
2022/04/26 08:13:03;;;;;;;11.10;6.73;;;;;;;;;;5073513;28;20253;-68
2022/04/26 08:15:31;;;;;;;8.77;6.77;;;;;;;;;;5066233;28;20309;-69
2022/04/26 08:17:59;;;;;;;9.70;7.43;;;;;;;;;;5072264;28;20927;-69
2022/04/26 08:20:27;;;;;;;9.10;6.57;;;;;;;;;;5072129;28;20293;-68
2022/04/26 08:22:57;;;;;;;7.47;6.13;;;;;;;;;;5068601;28;20241;-68
2022/04/26 08:28:11;;;;;;;8.23;5.40;;;;;;;;;;5066817;28;20261;-67
2022/04/26 08:30:39;;;;;;;6.10;5.30;;;;;;;;;;5073034;28;21081;-68
2022/04/26 08:33:07;;;;;;;7.80;5.30;;;;;;;;;;5072805;28;20618;-68
2022/04/26 08:35:35;;;;;;;7.23;5.43;;;;;;;;;;5074395;28;20660;-68
2022/04/26 08:38:25;;;;;;;7.97;6.20;;;;;;;;;;5072665;28;20194;-69
2022/04/26 08:40:53;;;;;;;11.53;6.63;;;;;;;;;;5072245;28;20205;-69
2022/04/26 08:43:21;;;;;;;6.17;5.50;;;;;;;;;;5072642;28;20218;-68
2022/04/26 08:45:49;;;;;;;6.67;5.37;;;;;;;;;;5074618;28;20259;-68
2022/04/26 08:51:08;;;;;;;6.47;5.47;;;;;;;;;;5068967;28;20203;-69
2022/04/26 08:53:38;;;;;;;7.67;5.80;;;;;;;;;;5066474;28;20230;-69
2022/04/26 08:56:07;;;;;;;8.60;6.43;;;;;;;;;;5070427;28;20227;-69
2022/04/26 08:58:35;;;;;;;7.60;6.10;;;;;;;;;;5068088;28;20202;-68
2022/04/26 09:01:05;;;;;;;8.77;6.73;;;;;;;;;;5070379;28;20665;-68
2022/04/26 09:03:33;;;;;;;9.30;6.77;;;;;;;;;;5067385;28;20319;-69
2022/04/26 09:06:12;;;;;;;7.60;6.57;;;;;;;;;;5071252;28;20223;-69
2022/04/26 09:08:42;;;;;;;5.67;5.07;;;;;;;;;;5070561;28;20209;-69
2022/04/26 09:11:33;;;;;;;5.77;5.20;;;;;;;;;;5070426;28;20209;-69
2022/04/26 09:14:01;;;;;;;6.73;5.30;;;;;;;;;;5069762;28;20238;-69
2022/04/26 09:16:29;;;;;;;8.43;5.40;;;;;;;;;;5069344;28;20258;-69
2022/04/26 09:18:58;;;;;;;9.10;5.97;;;;;;;;;;5070141;28;20191;-69
2022/04/26 09:21:30;;;;;;;5.37;4.87;;;;;;;;;;5074216;28;20252;-68
2022/04/26 09:24:01;;;;;;;5.47;4.90;;;;;;;;;;5066603;28;20242;-68
2022/04/26 09:26:33;;;;;;;6.63;4.77;;;;;;;;;;5070455;28;20221;-69
2022/04/26 09:32:24;;;;;;;8.17;5.63;;;;;;;;;;5069937;28;20207;-70
2022/04/26 09:34:52;;;;;;;5.63;4.40;;;;;;;;;;5075464;28;20209;-69
2022/04/26 09:37:20;;;;;;;6.40;4.93;;;;;;;;;;5071695;28;20222;-69
2022/04/26 09:40:02;;;;;;;7.63;4.63;;;;;;;;;;5071013;28;20225;-70
2022/04/26 09:42:32;;;;;;;6.60;4.50;;;;;;;;;;5067679;28;20210;-69
2022/04/26 09:45:06;;;;;;;5.07;4.57;;;;;;;;;;5071949;28;20209;-67
2022/04/26 09:47:38;;;;;;;4.70;4.30;;;;;;;;;;5067401;28;20210;-66
2022/04/26 09:50:06;;;;;;;7.27;4.50;;;;;;;;;;5072699;28;20214;-66
2022/04/26 09:52:34;;;;;;;6.63;4.53;;;;;;;;;;5067277;28;20195;-68
2022/04/26 09:55:05;;;;;;;4.97;4.40;;;;;;;;;;5068091;28;20236;-65
2022/04/26 09:57:34;;;;;;;4.50;4.10;;;;;;;;;;5067211;28;20202;-67
2022/04/26 10:00:06;;;;;;;4.97;4.20;;;;;;;;;;5065406;28;20222;-67
2022/04/26 10:02:36;;;;;;;7.27;5.00;;;;;;;;;;5068656;28;20258;-67
2022/04/26 10:05:06;;;;;;;5.17;4.67;;;;;;;;;;5068775;28;20206;-69
2022/04/26 10:07:36;;;;;;;6.03;5.43;;;;;;;;;;5066739;28;20658;-70
2022/04/26 10:10:06;;;;;;;8.50;5.23;;;;;;;;;;5071661;28;20244;-67
2022/04/26 10:12:35;;;;;;;7.20;5.40;;;;;;;;;;5071694;28;20557;-67
2022/04/26 10:15:04;;;;;;;6.87;5.30;;;;;;;;;;5070723;28;20637;-68
2022/04/26 10:17:33;;;;;;;6.37;4.90;;;;;;;;;;5063313;28;20202;-70
2022/04/26 10:20:01;;;;;;;5.23;4.73;;;;;;;;;;5070655;28;20201;-68
2022/04/26 10:22:48;;;;;;;5.20;4.70;;;;;;;;;;5071188;28;20198;-72
2022/04/26 10:25:21;;;;;;;6.13;5.23;;;;;;;;;;5069557;28;20240;-71
2022/04/26 10:28:21;;;;;;;6.83;4.93;;;;;;;;;;5071177;28;20235;-67
2022/04/26 10:30:49;;;;;;;7.63;4.40;;;;;;;;;;5074538;28;20283;-67
2022/04/26 10:33:33;;;;;;;6.60;5.87;;;;;;;;;;5070471;28;20225;-67
2022/04/26 10:36:31;;;;;;;6.17;4.00;;;;;;;;;;5072461;28;20253;-67
2022/04/26 10:39:18;;;;;;;6.00;4.83;;;;;;;;;;5073346;28;20198;-67
2022/04/26 10:41:47;;;;;;;6.33;5.23;;;;;;;;;;5071234;28;20268;-67
2022/04/26 10:44:45;;;;;;;6.53;4.93;;;;;;;;;;5066706;28;20241;-67
2022/04/26 10:47:23;;;;;;;4.23;3.83;;;;;;;;;;5011942;28;20259;-67
2022/04/26 10:49:51;;;;;;;8.47;4.80;;;;;;;;;;5064105;28;20665;-67
2022/04/26 10:52:49;;;;;;;7.07;4.63;;;;;;;;;;5070230;28;20198;-67
2022/04/26 10:55:18;;;;;;;6.47;4.73;;;;;;;;;;5065518;28;20224;-65
2022/04/26 10:57:50;;;;;;;7.67;5.00;;;;;;;;;;5069183;28;20203;-67
2022/04/26 11:00:19;;;;;;;5.10;4.13;;;;;;;;;;5073236;28;20205;-68
2022/04/26 11:02:48;;;;;;;5.53;4.23;;;;;;;;;;5062692;28;20257;-67
2022/04/26 11:05:18;;;;;;;6.80;4.43;;;;;;;;;;5071254;28;20214;-69
2022/04/26 11:07:46;;;;;;;5.43;4.93;;;;;;;;;;5068174;28;20629;-69
2022/04/26 11:10:15;;;;;;;5.07;4.53;;;;;;;;;;5067655;28;20261;-69
2022/04/26 11:12:43;;;;;;;6.07;4.57;;;;;;;;;;5066437;28;20261;-66
2022/04/26 11:15:14;;;;;;;4.57;4.17;;;;;;;;;;5067370;28;20237;-67
2022/04/26 11:17:43;;;;;;;9.53;5.10;;;;;;;;;;5071303;28;20626;-68
2022/04/26 11:20:14;;;;;;;7.20;5.53;;;;;;;;;;5066199;28;20213;-70
2022/04/26 11:22:46;;;;;;;5.83;5.23;;;;;;;;;;5067498;28;20653;-69
2022/04/26 11:28:01;;;;;;;7.00;5.30;;;;;;;;;;5068954;28;20217;-68
2022/04/26 11:30:31;;;;;;;6.57;5.07;;;;;;;;;;5066769;28;20649;-67
2022/04/26 11:32:59;;;;;;;6.40;4.67;;;;;;;;;;5067983;28;20716;-66
2022/04/26 11:35:27;;;;;;;7.70;4.90;;;;;;;;;;5068360;28;20230;-68
2022/04/26 11:37:57;;;;;;;7.37;5.17;;;;;;;;;;5066760;28;20207;-68
2022/04/26 11:40:26;;;;;;;6.87;5.10;;;;;;;;;;5066804;28;20273;-68
2022/04/26 11:42:56;;;;;;;4.97;4.57;;;;;;;;;;5068253;28;20627;-68
2022/04/26 11:45:28;;;;;;;6.87;6.13;;;;;;;;;;5064423;28;20249;-69
2022/04/26 11:47:58;;;;;;;6.87;6.17;;;;;;;;;;5077464;28;20225;-67
2022/04/26 11:50:26;;;;;;;9.57;5.77;;;;;;;;;;5071073;28;20253;-70
2022/04/26 11:52:59;;;;;;;7.10;6.40;;;;;;;;;;5069833;28;20206;-69
2022/04/26 11:55:28;;;;;;;6.27;5.27;;;;;;;;;;5073553;28;20214;-70
2022/04/26 11:58:10;;;;;;;5.87;5.13;;;;;;;;;;5075502;28;20285;-74
2022/04/26 12:00:49;;;;;;;6.13;4.87;;;;;;;;;;5071297;28;20286;-74
2022/04/26 12:03:19;;;;;;;7.00;5.10;;;;;;;;;;5070613;28;20261;-74
2022/04/26 12:05:48;;;;;;;7.53;4.73;;;;;;;;;;5075453;28;20680;-75
2022/04/26 12:08:16;;;;;;;6.97;5.10;;;;;;;;;;5075627;28;20213;-75
2022/04/26 12:10:45;;;;;;;6.80;4.83;;;;;;;;;;5072985;28;20264;-74
2022/04/26 12:13:13;;;;;;;5.00;4.50;;;;;;;;;;5072052;28;20241;-73
2022/04/26 12:15:42;;;;;;;8.87;4.67;;;;;;;;;;5073828;28;20249;-74
2022/04/26 12:18:11;;;;;;;6.77;4.93;;;;;;;;;;5071631;28;20286;-70
2022/04/26 12:20:56;;;;;;;9.53;5.20;;;;;;;;;;5075966;28;20202;-74
2022/04/26 12:23:26;;;;;;;5.70;5.07;;;;;;;;;;5074468;28;20205;-74
2022/04/26 12:25:57;;;;;;;6.07;4.80;;;;;;;;;;5071157;28;20306;-74
2022/04/26 12:28:26;;;;;;;5.30;4.47;;;;;;;;;;5068399;28;20209;-74
2022/04/26 12:30:54;;;;;;;5.40;4.90;;;;;;;;;;5068646;28;20653;-74
2022/04/26 12:33:26;;;;;;;4.77;4.33;;;;;;;;;;5072915;28;20202;-74
2022/04/26 12:36:03;;;;;;;8.67;5.53;;;;;;;;;;5073595;28;20229;-73
2022/04/26 12:38:31;;;;;;;5.50;4.73;;;;;;;;;;5074220;28;20276;-74
2022/04/26 12:41:06;;;;;;;5.40;4.77;;;;;;;;;;5074198;28;20233;-73
2022/04/26 12:43:34;;;;;;;5.77;4.50;;;;;;;;;;5076187;28;20248;-74
2022/04/26 12:46:03;;;;;;;6.07;5.00;;;;;;;;;;5072227;28;20310;-73
2022/04/26 12:51:20;;;;;;;5.80;5.17;;;;;;;;;;5064786;28;20218;-74
2022/04/26 12:54:06;;;;;;;5.17;4.27;;;;;;;;;;5075332;28;20198;-74
2022/04/26 12:56:34;;;;;;;6.60;4.47;;;;;;;;;;5072321;28;20256;-73
2022/04/26 12:59:02;;;;;;;4.47;4.07;;;;;;;;;;5074013;28;20246;-74
2022/04/26 13:01:31;;;;;;;4.87;4.23;;;;;;;;;;5064429;28;20235;-73
2022/04/26 13:04:00;;;;;;;4.23;3.80;;;;;;;;;;5073748;28;20678;-73
2022/04/26 13:06:30;;;;;;;5.43;4.17;;;;;;;;;;5065864;28;20222;-74
2022/04/26 13:09:18;;;;;;;6.93;4.23;;;;;;;;;;5070825;28;20205;-73
2022/04/26 13:11:48;;;;;;;6.30;4.80;;;;;;;;;;5073499;28;20250;-74
2022/04/26 13:14:16;;;;;;;5.10;4.60;;;;;;;;;;5070138;28;20237;-74
2022/04/26 13:17:06;;;;;;;4.43;4.03;;;;;;;;;;5051887;28;20269;-73
2022/04/26 13:19:35;;;;;;;4.83;4.27;;;;;;;;;;5071211;28;20210;-72
2022/04/26 13:22:04;;;;;;;4.57;3.80;;;;;;;;;;5070970;28;20230;-73
2022/04/26 13:24:32;;;;;;;5.13;4.13;;;;;;;;;;5074553;28;20237;-71
2022/04/26 13:27:02;;;;;;;4.53;3.80;;;;;;;;;;5075327;28;20620;-72
2022/04/26 13:29:30;;;;;;;5.30;3.70;;;;;;;;;;5071264;28;20233;-72
2022/04/26 13:31:58;;;;;;;6.67;4.37;;;;;;;;;;5064850;28;20218;-73
2022/04/26 13:34:26;;;;;;;8.67;3.90;;;;;;;;;;5067988;28;20231;-71
2022/04/26 13:37:07;;;;;;;3.77;3.20;;;;;;;;;;5069429;28;20217;-71
2022/04/26 13:39:36;;;;;;;4.77;4.27;;;;;;;;;;5071374;28;20228;-72
2022/04/26 13:42:05;;;;;;;7.67;5.33;;;;;;;;;;5065579;28;20194;-72
2022/04/26 13:44:33;;;;;;;4.53;3.53;;;;;;;;;;5071984;28;20207;-72
2022/04/26 13:47:04;;;;;;;6.53;3.63;;;;;;;;;;5072072;28;20305;-71
2022/04/26 13:49:34;;;;;;;3.17;2.90;;;;;;;;;;5073459;28;20608;-72
2022/04/26 13:52:02;;;;;;;7.70;3.70;;;;;;;;;;5071789;28;20269;-71
2022/04/26 13:54:32;;;;;;;8.10;4.57;;;;;;;;;;5071522;28;20569;-72
2022/04/26 13:57:00;;;;;;;4.20;3.63;;;;;;;;;;5073050;28;20218;-72
2022/04/26 13:59:28;;;;;;;4.67;3.37;;;;;;;;;;5071364;28;20241;-70
2022/04/26 14:02:02;;;;;;;3.90;3.50;;;;;;;;;;5065700;28;20235;-70
2022/04/26 14:04:30;;;;;;;3.50;3.20;;;;;;;;;;5067587;28;20289;-70
2022/04/26 14:06:58;;;;;;;3.93;3.60;;;;;;;;;;5069653;28;20254;-70
2022/04/26 14:09:26;;;;;;;5.17;3.63;;;;;;;;;;5068765;28;20879;-69
2022/04/26 14:11:56;;;;;;;3.63;3.17;;;;;;;;;;5072143;28;20249;-70
2022/04/26 14:22:46;;;;;;;6.37;3.40;;;;;;;;;;5069329;28;20222;-68
2022/04/26 14:25:14;;;;;;;3.87;3.57;;;;;;;;;;5073729;28;20623;-70
2022/04/26 14:27:45;;;;;;;4.13;3.17;;;;;;;;;;5071308;28;20301;-71
2022/04/26 14:30:14;;;;;;;4.30;3.53;;;;;;;;;;5067547;28;20241;-68
2022/04/26 14:33:02;;;;;;;5.97;3.23;;;;;;;;;;5072107;28;20215;-68
2022/04/26 14:35:32;;;;;;;5.53;3.47;;;;;;;;;;5073746;28;20218;-68
2022/04/26 14:38:00;;;;;;;4.17;3.17;;;;;;;;;;5067967;28;20641;-69
2022/04/26 14:40:29;;;;;;;4.37;3.53;;;;;;;;;;5072267;28;20233;-69
2022/04/26 14:43:05;;;;;;;4.90;3.17;;;;;;;;;;5070720;28;20611;-69
2022/04/26 14:45:33;;;;;;;3.70;3.40;;;;;;;;;;5071908;28;20252;-68
2022/04/26 14:48:01;;;;;;;4.90;3.80;;;;;;;;;;5069079;28;20195;-68
2022/04/26 14:50:30;;;;;;;3.90;3.00;;;;;;;;;;5071654;28;20294;-68
2022/04/26 14:52:58;;;;;;;3.20;2.63;;;;;;;;;;5066387;28;20218;-69
2022/04/26 14:55:44;;;;;;;3.43;3.20;;;;;;;;;;5067363;28;20232;-67
2022/04/26 14:58:14;;;;;;;5.70;3.40;;;;;;;;;;5067799;28;20206;-68
2022/04/26 15:00:42;;;;;;;5.13;3.60;;;;;;;;;;5069311;28;20236;-68
2022/04/26 15:03:10;;;;;;;3.90;2.87;;;;;;;;;;5067025;28;20765;-68
2022/04/26 15:05:39;;;;;;;4.00;2.83;;;;;;;;;;5068344;28;20254;-70
2022/04/26 15:10:54;;;;;;;3.77;3.10;;;;;;;;;;5070750;28;20202;-69
2022/04/26 15:18:57;;;;;;;4.57;3.37;;;;;;;;;;5066916;28;20248;-69
2022/04/26 15:21:25;;;;;;;3.40;2.80;;;;;;;;;;5071128;28;20202;-69
2022/04/26 15:23:54;;;;;;;3.13;2.53;;;;;;;;;;5063596;28;20199;-69
2022/04/26 15:26:24;;;;;;;3.10;2.80;;;;;;;;;;5074688;28;20318;-70
2022/04/26 15:28:53;;;;;;;3.60;2.90;;;;;;;;;;5074101;28;20252;-69
2022/04/26 15:31:22;;;;;;;3.40;3.03;;;;;;;;;;5072065;28;20211;-69
2022/04/26 15:33:52;;;;;;;5.60;3.20;;;;;;;;;;5076875;28;20228;-69
2022/04/26 15:36:20;;;;;;;4.20;3.13;;;;;;;;;;5075810;28;20230;-70
2022/04/26 15:38:49;;;;;;;4.33;3.10;;;;;;;;;;5074808;28;20198;-69
2022/04/26 15:41:17;;;;;;;4.60;3.70;;;;;;;;;;5070134;28;20244;-70
2022/04/26 15:43:48;;;;;;;3.20;2.90;;;;;;;;;;5075641;28;20213;-71
2022/04/26 15:46:38;;;;;;;3.30;2.90;;;;;;;;;;5068102;28;20218;-69
2022/04/26 15:49:06;;;;;;;3.40;3.10;;;;;;;;;;5075136;28;20209;-70
2022/04/26 15:51:35;;;;;;;2.90;2.70;;;;;;;;;;5077054;28;20238;-70
2022/04/26 15:54:05;;;;;;;4.17;2.83;;;;;;;;;;5069706;28;20241;-70
2022/04/26 15:56:34;;;;;;;2.43;2.23;;;;;;;;;;5076065;28;20321;-70
2022/04/26 15:59:02;;;;;;;2.97;2.67;;;;;;;;;;5074308;28;20576;-70
2022/04/26 16:01:35;;;;;;;5.07;3.07;;;;;;;;;;5075485;28;20614;-69
2022/04/26 16:04:09;;;;;;;4.67;2.93;;;;;;;;;;5076668;28;20835;-70
2022/04/26 16:06:39;;;;;;;3.63;3.07;;;;;;;;;;5072210;28;20310;-71
2022/04/26 16:20:30;;;;;;;6.20;3.43;;;;;;;;;;5074740;28;20202;-69
2022/04/26 16:22:59;;;;;;;3.10;2.90;;;;;;;;;;5073660;28;20209;-69
2022/04/26 16:25:27;;;;;;;4.13;2.83;;;;;;;;;;5076434;28;20749;-69
2022/04/26 16:27:55;;;;;;;4.03;3.20;;;;;;;;;;5075506;28;20324;-69
2022/04/26 16:30:28;;;;;;;3.33;2.97;;;;;;;;;;5071908;28;20638;-69
2022/04/26 16:32:57;;;;;;;4.17;2.90;;;;;;;;;;5071665;28;20256;-70
2022/04/26 16:35:26;;;;;;;3.37;2.90;;;;;;;;;;5075209;28;20254;-69
2022/04/26 16:37:55;;;;;;;4.57;2.90;;;;;;;;;;5076061;28;20211;-69
2022/04/26 16:40:23;;;;;;;4.13;2.90;;;;;;;;;;5071940;28;20202;-69
2022/04/26 16:42:51;;;;;;;3.60;3.30;;;;;;;;;;5069531;28;20218;-69
2022/04/26 16:45:19;;;;;;;3.50;3.20;;;;;;;;;;5069931;28;20631;-68
2022/04/26 16:47:49;;;;;;;3.27;3.07;;;;;;;;;;5070795;28;20577;-68
2022/04/26 16:50:17;;;;;;;4.37;2.47;;;;;;;;;;5065981;28;20281;-68
2022/04/26 16:52:49;;;;;;;2.83;2.63;;;;;;;;;;5068820;28;20309;-66
2022/04/26 16:55:17;;;;;;;3.30;3.00;;;;;;;;;;5071438;28;20623;-68
2022/04/26 16:57:46;;;;;;;3.07;2.80;;;;;;;;;;5073671;28;20199;-68
2022/04/26 17:00:15;;;;;;;2.70;2.50;;;;;;;;;;5073994;28;20233;-68
2022/04/26 17:02:44;;;;;;;3.07;2.67;;;;;;;;;;5076188;28;20260;-69
2022/04/26 17:05:13;;;;;;;4.43;3.33;;;;;;;;;;5073172;28;20202;-69
2022/04/26 17:07:47;;;;;;;4.97;2.80;;;;;;;;;;5071127;28;20206;-69
2022/04/26 17:10:15;;;;;;;3.43;3.13;;;;;;;;;;5066918;28;20237;-69
2022/04/26 17:12:44;;;;;;;4.03;3.07;;;;;;;;;;5075234;28;20233;-68
2022/04/26 17:15:15;;;;;;;4.87;3.40;;;;;;;;;;5066792;28;20286;-68
2022/04/26 17:17:44;;;;;;;7.20;3.37;;;;;;;;;;5073220;28;20234;-69
2022/04/26 17:20:13;;;;;;;4.43;2.80;;;;;;;;;;5066400;28;20242;-67
2022/04/26 17:22:42;;;;;;;4.63;3.10;;;;;;;;;;5074999;28;20213;-69
2022/04/26 17:25:14;;;;;;;3.57;3.27;;;;;;;;;;5070034;28;20222;-68
2022/04/26 17:28:04;;;;;;;3.43;3.13;;;;;;;;;;5067320;28;20233;-68
2022/04/26 17:30:32;;;;;;;2.67;2.40;;;;;;;;;;5069007;28;20198;-69
2022/04/26 17:33:00;;;;;;;5.37;3.03;;;;;;;;;;5067212;28;20237;-68
2022/04/26 17:35:30;;;;;;;3.00;2.70;;;;;;;;;;5070180;28;20256;-68
2022/04/26 17:37:59;;;;;;;3.67;3.23;;;;;;;;;;5072919;28;20202;-68
2022/04/26 17:40:28;;;;;;;3.93;3.10;;;;;;;;;;5069042;28;20263;-69
2022/04/26 17:42:56;;;;;;;2.90;2.70;;;;;;;;;;5070282;28;20610;-68
2022/04/26 17:45:25;;;;;;;4.20;3.27;;;;;;;;;;5071527;28;20247;-68
2022/04/26 17:47:53;;;;;;;3.17;2.87;;;;;;;;;;5070919;28;20195;-68
2022/04/26 17:50:26;;;;;;;5.90;3.13;;;;;;;;;;5071409;28;20236;-67
2022/04/26 17:58:27;;;;;;;3.53;2.43;;;;;;;;;;5070121;28;20716;-68
2022/04/26 18:00:55;;;;;;;5.07;2.80;;;;;;;;;;5070325;28;20237;-67
2022/04/26 18:03:25;;;;;;;5.43;2.90;;;;;;;;;;5070210;28;20269;-69
2022/04/26 18:05:54;;;;;;;4.47;3.10;;;;;;;;;;5072637;28;20260;-68
2022/04/26 18:08:26;;;;;;;3.10;2.80;;;;;;;;;;5069922;28;20610;-69
2022/04/26 18:10:57;;;;;;;3.30;2.97;;;;;;;;;;5070406;28;20200;-68
2022/04/26 18:13:27;;;;;;;2.90;2.60;;;;;;;;;;5070857;28;20226;-67
2022/04/26 18:15:57;;;;;;;8.93;3.30;;;;;;;;;;5072321;28;20215;-71
2022/04/26 18:18:25;;;;;;;3.87;3.30;;;;;;;;;;5072425;28;20198;-69
2022/04/26 18:20:54;;;;;;;3.73;3.30;;;;;;;;;;5071662;28;20720;-68
2022/04/26 18:23:23;;;;;;;3.37;2.90;;;;;;;;;;5066865;28;20232;-70
2022/04/26 18:28:38;;;;;;;3.73;3.10;;;;;;;;;;5069427;28;20225;-68
2022/04/26 18:31:07;;;;;;;6.00;3.23;;;;;;;;;;5065064;28;20207;-68
2022/04/26 18:33:35;;;;;;;7.63;3.03;;;;;;;;;;5065834;28;20222;-69
2022/04/26 18:36:08;;;;;;;3.40;3.10;;;;;;;;;;5069754;28;20257;-70
2022/04/26 18:38:36;;;;;;;3.60;2.63;;;;;;;;;;5070693;28;20194;-70
2022/04/26 18:41:06;;;;;;;3.90;2.50;;;;;;;;;;5068952;28;20266;-69
2022/04/26 18:43:34;;;;;;;3.20;2.90;;;;;;;;;;5069548;28;20720;-69
2022/04/26 18:46:04;;;;;;;3.77;2.40;;;;;;;;;;5070934;28;20252;-69
2022/04/26 18:48:32;;;;;;;4.40;2.90;;;;;;;;;;5068966;28;20194;-70
2022/04/26 18:51:00;;;;;;;5.97;3.37;;;;;;;;;;5069429;28;20285;-69
2022/04/26 18:53:29;;;;;;;6.83;3.60;;;;;;;;;;5069257;28;20248;-68
2022/04/26 18:55:57;;;;;;;3.43;3.10;;;;;;;;;;5073296;28;20268;-72
2022/04/26 18:58:27;;;;;;;3.57;2.93;;;;;;;;;;5070039;28;20226;-71
2022/04/26 19:00:56;;;;;;;4.17;2.57;;;;;;;;;;5075007;28;20198;-72
2022/04/26 19:03:26;;;;;;;3.97;2.97;;;;;;;;;;5071256;28;20234;-72
2022/04/26 19:05:54;;;;;;;5.03;2.87;;;;;;;;;;5075569;28;20214;-72
2022/04/26 19:08:22;;;;;;;3.90;3.27;;;;;;;;;;5070515;28;20657;-70
2022/04/26 19:13:37;;;;;;;3.67;2.77;;;;;;;;;;5075764;28;20641;-74
2022/04/26 19:16:05;;;;;;;3.13;2.87;;;;;;;;;;5070438;28;20250;-71
2022/04/26 19:18:35;;;;;;;4.53;3.10;;;;;;;;;;5072840;28;20693;-73
2022/04/26 19:21:04;;;;;;;3.13;2.80;;;;;;;;;;5071274;28;20209;-73
2022/04/26 19:23:32;;;;;;;2.67;2.40;;;;;;;;;;5068971;28;20260;-73
2022/04/26 19:26:00;;;;;;;3.07;2.77;;;;;;;;;;5069244;28;20549;-73
2022/04/26 19:28:29;;;;;;;2.67;2.47;;;;;;;;;;5070957;28;20248;-74
2022/04/26 19:30:57;;;;;;;3.20;2.60;;;;;;;;;;5071007;28;20613;-72
2022/04/26 19:33:25;;;;;;;3.70;3.03;;;;;;;;;;5069461;28;20245;-73